Aeroporto :
LOGIN :

Iscrizione | Disclaimer

   EN    FR    IT 

 










Sommario :    VFR   VFR Marginale   IFR   IFR Intensivo   IFR Molto Intensivo
Visibilità : 
Base nubi : 
>= 8 km
>= 3000ft
5 / 8 km
1000 / 3000 ft
1500m / 5 km
500 / 1000 ft
800 / 1500m
200 / 500 ft
< 800m
< 200 ft
Simboli :   Temporali  Nebbia  Neve Forte  Precipitazioni Forti  Vento > 20 kt
SIGMETs :   Varie  Temporali  Ghiacco  Turbolenza  Onda orograficha  Ceneri Vulcaniche






- Altitudine del aeroporto : 1674 ft
- Codice IATA : BRN


LSZB - Bern Belp

ULTIMO METAR :
  • 270320Z AUTO VRB01KT 2500 BR FEW003 BKN045 BKN055 01/00 Q1019

METARs OBSOLETI :
  • 270250Z AUTO VRB02KT 1600 BR FEW001 BKN080 01/01 Q1019
  • 270220Z AUTO VRB02KT 4500 BR BKN016 OVC018 01/01 Q1019
  • 270150Z AUTO VRB01KT 3200 BR SCT001 OVC019 OVC021 01/00 Q1019
  • 270120Z AUTO VRB01KT 1300 R14/0900U BR FEW025 SCT070 BKN080 01/00 Q1019
  • 270050Z AUTO VRB01KT 4000 BR BKN022 01/01 Q1019
  • 270020Z AUTO VRB01KT 4500 BR BKN065 BKN085 01/01 Q1019

Previsioni scadute.
ATIS : +41 22 417 40 76



MetMap, La meteo Aeronautica in un colpo d'occhio ! - Copyright ORBIFLY Dicembre 2007 - Disclaimer

ORBIFLY MET'MAP TEAM :

Programmazione e sviluppo : Alexandra Zaïnal
Concezione : Baudouin d'Aumeries
Aiuto per la programmazione : Marc-Olivier Méhu
Supporto tecnico e logistico : Manuel Goepfert
Aiuto per la traduzione : Arnaldo La Scala

Contatto : metmap@orbifly.com




FONTI E CREDITI :

   NOAA